createdAt,value
2019-03-15T00:02:33.665Z,50.70
2019-03-15T00:05:25.627Z,50.70
2019-03-15T00:08:17.769Z,50.70
2019-03-15T00:11:09.941Z,50.70
2019-03-15T00:14:03.292Z,50.90
2019-03-15T00:16:55.195Z,50.80
2019-03-15T00:19:47.527Z,50.90
2019-03-15T00:22:39.559Z,50.90
2019-03-15T00:25:31.594Z,50.80
2019-03-15T00:28:26.369Z,50.90
2019-03-15T00:31:19.075Z,50.90
2019-03-15T00:34:11.668Z,51.00
2019-03-15T00:37:03.792Z,51.10
2019-03-15T00:39:56.176Z,51.20
2019-03-15T00:42:48.532Z,51.30
2019-03-15T00:45:41.022Z,51.40
2019-03-15T00:48:33.094Z,51.40
2019-03-15T00:51:26.956Z,51.40
2019-03-15T00:54:37.178Z,51.40
2019-03-15T00:57:28.755Z,51.40
2019-03-15T01:00:20.719Z,51.50
2019-03-15T01:03:12.712Z,51.70
2019-03-15T01:06:04.760Z,51.70
2019-03-15T01:08:56.703Z,51.80
2019-03-15T01:11:48.765Z,51.90
2019-03-15T01:14:40.998Z,51.90
2019-03-15T01:17:32.848Z,52.00
2019-03-15T01:20:25.162Z,51.90
2019-03-15T01:23:17.046Z,51.90
2019-03-15T01:26:09.415Z,52.00
2019-03-15T01:29:01.597Z,52.10
2019-03-15T01:31:54.343Z,52.10
2019-03-15T01:34:46.432Z,52.10
2019-03-15T01:37:38.446Z,52.10
2019-03-15T01:40:30.579Z,52.20
2019-03-15T01:43:22.491Z,52.10
2019-03-15T01:46:14.810Z,52.30
2019-03-15T01:49:06.920Z,52.30
2019-03-15T01:51:59.900Z,52.50
2019-03-15T01:54:52.136Z,52.50
2019-03-15T01:57:43.499Z,52.50
2019-03-15T02:00:35.289Z,52.40
2019-03-15T02:03:29.249Z,52.60
2019-03-15T02:06:20.799Z,52.60
2019-03-15T02:09:12.927Z,52.40
2019-03-15T02:12:05.193Z,52.50
2019-03-15T02:14:57.557Z,52.50
2019-03-15T02:17:49.660Z,52.30
2019-03-15T02:20:41.671Z,52.30
2019-03-15T02:23:33.966Z,52.20
2019-03-15T02:26:26.150Z,52.10
2019-03-15T02:29:19.623Z,52.00
2019-03-15T02:32:12.895Z,52.00
2019-03-15T02:35:05.388Z,51.90
2019-03-15T02:37:57.371Z,51.80
2019-03-15T02:40:49.450Z,51.90
2019-03-15T02:43:46.029Z,51.90
2019-03-15T02:46:38.296Z,51.90
2019-03-15T02:49:33.231Z,51.90
2019-03-15T02:52:27.600Z,51.90
2019-03-15T02:55:21.084Z,51.90
2019-03-15T02:58:14.326Z,51.80
2019-03-15T03:01:06.087Z,51.80
2019-03-15T03:03:58.541Z,51.70
2019-03-15T03:06:51.025Z,51.80
2019-03-15T03:09:43.035Z,51.80
2019-03-15T03:12:35.306Z,52.00
2019-03-15T03:15:27.252Z,52.40
2019-03-15T03:18:19.267Z,53.40
2019-03-15T03:21:12.462Z,53.50
2019-03-15T03:24:04.522Z,53.30
2019-03-15T03:26:56.229Z,53.20
2019-03-15T03:29:48.213Z,53.20
2019-03-15T03:32:40.880Z,53.10
2019-03-15T03:35:33.587Z,52.90
2019-03-15T03:38:25.571Z,52.80
2019-03-15T03:41:17.759Z,52.80
2019-03-15T03:44:10.200Z,52.90
2019-03-15T03:47:02.478Z,52.80
2019-03-15T03:49:54.808Z,52.60
2019-03-15T03:52:47.242Z,52.60
2019-03-15T03:55:40.040Z,52.60
2019-03-15T04:01:29.888Z,52.60
2019-03-15T04:04:31.165Z,52.40
2019-03-15T04:07:26.770Z,52.40
2019-03-15T04:10:19.033Z,52.40
2019-03-15T04:13:45.816Z,50.60
2019-03-15T04:16:38.034Z,49.40
2019-03-15T04:19:30.836Z,48.20
2019-03-15T04:22:22.922Z,47.60
2019-03-15T04:25:15.676Z,46.80
2019-03-15T04:28:07.570Z,46.50
2019-03-15T04:31:04.838Z,46.30
2019-03-15T04:33:58.346Z,45.70
2019-03-15T04:36:51.862Z,45.90
2019-03-15T04:39:47.197Z,45.60
2019-03-15T04:42:39.065Z,49.40
2019-03-15T04:45:31.140Z,50.00
2019-03-15T04:48:23.457Z,51.70
2019-03-15T04:51:17.365Z,52.10
2019-03-15T04:54:09.910Z,52.50
2019-03-15T04:57:02.282Z,52.90
2019-03-15T04:59:55.800Z,52.80
2019-03-15T05:02:47.819Z,52.50
2019-03-15T05:05:40.483Z,52.40
2019-03-15T05:08:46.214Z,52.30
2019-03-15T05:11:37.876Z,52.40
2019-03-15T05:14:31.082Z,52.80
2019-03-15T05:17:27.441Z,53.30
2019-03-15T05:20:24.240Z,53.30
2019-03-15T05:24:00.168Z,53.60
2019-03-15T05:26:56.640Z,53.70
2019-03-15T05:30:03.496Z,53.80
2019-03-15T05:36:00.699Z,54.00
2019-03-15T05:38:53.667Z,54.10
2019-03-15T05:41:47.526Z,54.40
2019-03-15T05:44:41.781Z,54.30
2019-03-15T05:47:33.999Z,54.40
2019-03-15T05:50:26.803Z,54.40
2019-03-15T05:53:19.522Z,54.50
2019-03-15T05:56:13.427Z,54.40
2019-03-15T05:59:08.535Z,54.60
2019-03-15T06:02:01.767Z,54.60
2019-03-15T06:04:58.009Z,54.60
2019-03-15T06:07:51.766Z,54.80
2019-03-15T06:10:48.546Z,54.70
2019-03-15T06:13:48.604Z,54.60
2019-03-15T06:16:37.052Z,54.60
2019-03-15T06:19:33.795Z,54.70
2019-03-15T06:22:26.857Z,54.70
2019-03-15T06:25:20.016Z,54.70
2019-03-15T06:28:12.878Z,54.60
2019-03-15T06:31:08.430Z,54.60
2019-03-15T06:34:03.793Z,54.50
2019-03-15T06:37:03.292Z,54.50
2019-03-15T06:39:58.590Z,54.20
2019-03-15T06:42:56.753Z,54.10
2019-03-15T06:45:52.208Z,54.20
2019-03-15T06:48:46.505Z,54.20
2019-03-15T06:51:46.878Z,53.90
2019-03-15T06:54:40.058Z,53.70
2019-03-15T06:57:32.504Z,53.40
2019-03-15T07:00:25.124Z,53.40
2019-03-15T07:03:21.220Z,53.40
2019-03-15T07:06:14.369Z,53.00
2019-03-15T07:09:11.567Z,53.20
2019-03-15T07:12:23.585Z,53.20
2019-03-15T07:15:16.848Z,53.10
2019-03-15T07:18:13.135Z,53.10
2019-03-15T07:21:20.575Z,53.20
2019-03-15T07:24:25.405Z,53.00
2019-03-15T07:27:17.627Z,53.10
2019-03-15T07:30:11.981Z,53.10
2019-03-15T07:33:06.330Z,53.20
2019-03-15T07:35:59.559Z,53.00
2019-03-15T07:38:53.818Z,53.00
2019-03-15T07:41:46.962Z,52.80
2019-03-15T07:44:49.044Z,52.90
2019-03-15T07:47:41.682Z,53.00
2019-03-15T07:50:39.094Z,53.00
2019-03-15T07:53:35.135Z,53.10
2019-03-15T07:56:28.551Z,53.00
2019-03-15T07:59:20.034Z,53.00
2019-03-15T08:02:22.492Z,52.90
2019-03-15T08:05:21.209Z,53.00
2019-03-15T08:08:17.041Z,53.00
2019-03-15T08:11:15.270Z,52.40
2019-03-15T08:14:08.244Z,52.50
2019-03-15T08:17:00.744Z,52.40
2019-03-15T08:19:53.777Z,52.10
2019-03-15T08:22:47.312Z,52.20
2019-03-15T08:25:40.267Z,52.20
2019-03-15T08:28:32.848Z,52.10
2019-03-15T08:31:28.026Z,52.00
2019-03-15T08:34:21.805Z,51.90
2019-03-15T08:37:15.132Z,51.80
2019-03-15T08:40:07.548Z,51.10
2019-03-15T08:43:06.702Z,51.30
2019-03-15T08:46:02.608Z,51.30
2019-03-15T08:48:57.423Z,50.60
2019-03-15T08:52:03.899Z,50.10
2019-03-15T08:58:13.413Z,49.40
2019-03-15T09:00:57.207Z,48.90
2019-03-15T09:03:53.496Z,48.50
2019-03-15T09:06:47.134Z,48.30
2019-03-15T09:09:41.162Z,48.00
2019-03-15T09:12:35.246Z,48.10
2019-03-15T09:15:30.921Z,48.50
2019-03-15T09:18:25.784Z,48.30
2019-03-15T09:24:44.474Z,48.10
2019-03-15T09:27:36.672Z,47.70
2019-03-15T09:31:20.685Z,47.70
2019-03-15T09:34:28.638Z,47.60
2019-03-15T09:37:34.646Z,47.60
2019-03-15T09:40:27.763Z,47.70
2019-03-15T09:43:19.482Z,47.60
2019-03-15T09:46:11.785Z,47.80
2019-03-15T09:49:04.032Z,48.10
2019-03-15T09:51:57.850Z,48.20
2019-03-15T09:54:54.209Z,47.80
2019-03-15T09:57:54.644Z,48.30
2019-03-15T10:01:34.778Z,48.40
2019-03-15T10:04:25.118Z,48.60
2019-03-15T10:07:20.002Z,48.80
2019-03-15T10:10:33.390Z,49.00
2019-03-15T10:13:28.969Z,49.10
2019-03-15T10:16:24.909Z,49.50
2019-03-15T10:19:21.171Z,49.50
2019-03-15T10:22:14.972Z,49.20
2019-03-15T10:25:45.943Z,49.00
2019-03-15T10:29:14.244Z,49.20
2019-03-15T10:31:58.239Z,49.20
2019-03-15T10:35:02.695Z,49.30
2019-03-15T10:38:03.664Z,49.20
2019-03-15T10:41:22.021Z,49.40
2019-03-15T10:44:22.044Z,49.40
2019-03-15T10:47:18.190Z,50.00
2019-03-15T10:50:14.501Z,49.10
2019-03-15T10:53:18.278Z,49.20
2019-03-15T10:56:13.339Z,48.80
2019-03-15T10:59:06.002Z,49.20
2019-03-15T11:01:58.154Z,49.30
2019-03-15T11:04:55.342Z,49.10
2019-03-15T11:07:51.679Z,49.00
2019-03-15T11:10:48.614Z,49.10
2019-03-15T11:17:07.817Z,49.40
2019-03-15T11:20:04.996Z,49.30
2019-03-15T11:22:57.862Z,49.70
2019-03-15T11:25:52.186Z,48.50
2019-03-15T11:28:56.381Z,47.60
2019-03-15T11:31:54.502Z,46.80
2019-03-15T11:34:50.856Z,46.40
2019-03-15T11:37:48.030Z,46.00
2019-03-15T11:40:54.553Z,45.70
2019-03-15T11:43:50.518Z,45.70
2019-03-15T11:49:39.910Z,45.40
2019-03-15T11:52:32.274Z,45.90
2019-03-15T11:55:25.433Z,45.70
2019-03-15T11:58:20.713Z,45.40
2019-03-15T12:01:13.366Z,45.40
2019-03-15T12:04:07.520Z,45.20
2019-03-15T12:07:01.830Z,45.50
2019-03-15T12:09:56.172Z,46.20
2019-03-15T12:12:50.179Z,46.60
2019-03-15T12:15:46.532Z,47.10
2019-03-15T12:18:41.564Z,47.70
2019-03-15T12:25:20.050Z,48.80
2019-03-15T12:28:12.698Z,48.50
2019-03-15T12:34:42.405Z,48.50
2019-03-15T12:37:52.223Z,48.20
2019-03-15T12:40:48.443Z,47.90
2019-03-15T12:43:48.038Z,47.90
2019-03-15T12:46:59.346Z,47.50
2019-03-15T12:50:11.784Z,47.00
2019-03-15T12:53:05.129Z,47.70
2019-03-15T12:55:58.170Z,47.00
2019-03-15T12:58:50.849Z,47.70
2019-03-15T13:01:43.235Z,47.90
2019-03-15T13:04:35.519Z,47.60
2019-03-15T13:07:57.110Z,47.60
2019-03-15T13:10:31.372Z,47.50
2019-03-15T13:13:24.804Z,47.60
2019-03-15T13:16:17.073Z,47.50
2019-03-15T13:19:09.411Z,47.60
2019-03-15T13:22:02.170Z,47.80
2019-03-15T13:24:54.666Z,47.80
2019-03-15T13:27:47.220Z,48.00
2019-03-15T13:30:39.858Z,48.00
2019-03-15T13:33:32.130Z,48.00
2019-03-15T13:36:24.667Z,48.20
2019-03-15T13:39:16.521Z,48.20
2019-03-15T13:42:08.808Z,48.20
2019-03-15T13:45:01.267Z,48.20
2019-03-15T13:47:55.146Z,48.30
2019-03-15T13:50:47.437Z,48.20
2019-03-15T13:53:39.631Z,48.30
2019-03-15T13:56:32.476Z,48.20
2019-03-15T13:59:25.054Z,48.40
2019-03-15T14:02:17.063Z,48.40
2019-03-15T14:05:10.363Z,48.30
2019-03-15T14:08:11.713Z,48.30
2019-03-15T14:10:55.960Z,48.30
2019-03-15T14:13:48.196Z,48.60
2019-03-15T14:16:40.356Z,48.70
2019-03-15T14:19:32.917Z,48.60
2019-03-15T14:22:25.347Z,48.70
2019-03-15T14:25:17.635Z,48.60
2019-03-15T14:28:10.146Z,48.70
2019-03-15T14:31:02.596Z,48.80
2019-03-15T14:33:55.913Z,48.80
2019-03-15T14:36:48.284Z,48.80
2019-03-15T14:39:40.770Z,48.80
2019-03-15T14:42:33.188Z,48.90
2019-03-15T14:45:25.640Z,48.80
2019-03-15T14:48:17.797Z,48.80
2019-03-15T14:51:18.691Z,49.00
2019-03-15T14:54:10.608Z,48.90
2019-03-15T14:57:02.837Z,48.90
2019-03-15T14:59:58.733Z,49.00
2019-03-15T15:02:50.717Z,49.00
2019-03-15T15:05:42.948Z,49.00
2019-03-15T15:08:35.472Z,49.00
2019-03-15T15:11:28.469Z,49.10
2019-03-15T15:14:22.411Z,49.10
2019-03-15T15:17:14.732Z,49.20
2019-03-15T15:20:07.800Z,49.10
2019-03-15T15:23:01.982Z,49.20
2019-03-15T15:25:55.416Z,49.20
2019-03-15T15:28:47.995Z,49.30
2019-03-15T15:31:43.145Z,49.30
2019-03-15T15:34:35.244Z,49.30
2019-03-15T15:37:29.613Z,49.30
2019-03-15T15:40:23.211Z,49.30
2019-03-15T15:43:19.987Z,49.30
2019-03-15T15:46:12.040Z,49.30
2019-03-15T15:49:05.964Z,49.30
2019-03-15T15:51:58.557Z,49.40
2019-03-15T15:54:51.281Z,49.40
2019-03-15T15:57:43.868Z,49.40
2019-03-15T16:00:36.821Z,49.60
2019-03-15T16:03:29.103Z,49.60
2019-03-15T16:06:21.668Z,49.70
2019-03-15T16:09:14.525Z,49.50
2019-03-15T16:12:07.105Z,49.60
2019-03-15T16:14:59.763Z,49.60
2019-03-15T16:17:52.453Z,49.60
2019-03-15T16:20:46.472Z,49.60
2019-03-15T16:23:39.086Z,49.60
2019-03-15T16:26:34.565Z,49.70
2019-03-15T16:29:30.729Z,49.60
2019-03-15T16:32:27.721Z,49.60
2019-03-15T16:35:22.757Z,49.60
2019-03-15T16:38:15.196Z,49.60
2019-03-15T16:41:08.184Z,49.60
2019-03-15T16:44:01.561Z,49.70
2019-03-15T16:46:54.232Z,49.60
2019-03-15T16:49:47.161Z,49.70
2019-03-15T16:52:40.110Z,49.60
2019-03-15T16:55:32.641Z,49.60
2019-03-15T16:58:25.679Z,49.60
2019-03-15T17:01:19.395Z,49.70
2019-03-15T17:04:13.710Z,49.60
2019-03-15T17:07:08.065Z,49.80
2019-03-15T17:10:00.987Z,49.70
2019-03-15T17:12:55.779Z,49.60
2019-03-15T17:15:50.502Z,49.70
2019-03-15T17:18:43.490Z,49.70
2019-03-15T17:21:36.593Z,49.60
2019-03-15T17:24:29.125Z,49.70
2019-03-15T17:27:21.556Z,49.70
2019-03-15T17:30:16.812Z,49.70
2019-03-15T17:33:09.866Z,49.80
2019-03-15T17:36:08.310Z,49.70
2019-03-15T17:39:05.270Z,49.80
2019-03-15T17:41:57.679Z,49.80
2019-03-15T17:44:50.692Z,49.80
2019-03-15T17:47:44.634Z,49.70
2019-03-15T17:50:39.012Z,49.70
2019-03-15T17:53:34.089Z,49.60
2019-03-15T17:56:26.573Z,49.60
2019-03-15T17:59:19.054Z,49.70
2019-03-15T18:02:12.224Z,49.50
2019-03-15T18:05:04.321Z,49.60
2019-03-15T18:07:57.767Z,49.40
2019-03-15T18:10:50.843Z,49.40
2019-03-15T18:13:43.507Z,49.30
2019-03-15T18:16:36.342Z,49.40
2019-03-15T18:19:29.266Z,49.40
2019-03-15T18:22:22.445Z,50.00
2019-03-15T18:25:15.181Z,50.30
2019-03-15T18:28:07.646Z,50.40
2019-03-15T18:30:59.826Z,50.40
2019-03-15T18:33:52.048Z,50.50
2019-03-15T18:36:44.418Z,50.40
2019-03-15T18:39:37.351Z,48.20
2019-03-15T18:42:30.739Z,46.70
2019-03-15T18:45:23.000Z,45.60
2019-03-15T18:48:15.514Z,44.80
2019-03-15T18:51:07.892Z,44.30
2019-03-15T18:54:00.238Z,43.40
2019-03-15T18:56:52.363Z,43.30
2019-03-15T18:59:44.464Z,43.00
2019-03-15T19:02:36.615Z,42.40
2019-03-15T19:05:28.590Z,42.20
2019-03-15T19:08:20.763Z,41.90
2019-03-15T19:11:12.845Z,41.70
2019-03-15T19:14:05.075Z,41.40
2019-03-15T19:16:56.973Z,41.20
2019-03-15T19:19:49.039Z,40.90
2019-03-15T19:22:41.636Z,41.00
2019-03-15T19:25:34.015Z,40.80
2019-03-15T19:28:26.270Z,40.70
2019-03-15T19:31:18.435Z,40.50
2019-03-15T19:34:10.799Z,40.50
2019-03-15T19:37:03.084Z,40.30
2019-03-15T19:39:55.246Z,40.40
2019-03-15T19:42:47.472Z,40.30
2019-03-15T19:45:40.705Z,40.30
2019-03-15T19:48:33.221Z,40.30
2019-03-15T19:51:26.507Z,40.10
2019-03-15T19:54:18.806Z,40.10
2019-03-15T19:57:10.853Z,39.80
2019-03-15T20:00:08.213Z,40.10
2019-03-15T20:02:56.619Z,40.00
2019-03-15T20:05:48.706Z,40.00
2019-03-15T20:08:40.635Z,39.80
2019-03-15T20:11:32.585Z,39.80
2019-03-15T20:14:24.510Z,39.70
2019-03-15T20:17:16.655Z,39.80
2019-03-15T20:20:09.299Z,40.00
2019-03-15T20:23:01.441Z,39.90
2019-03-15T20:25:53.559Z,39.90
2019-03-15T20:28:45.801Z,39.90
2019-03-15T20:31:37.903Z,39.70
2019-03-15T20:34:29.926Z,39.80
2019-03-15T20:37:21.977Z,40.20
2019-03-15T20:40:14.197Z,39.90
2019-03-15T20:43:06.479Z,39.90
2019-03-15T20:45:58.690Z,39.80
2019-03-15T20:48:51.084Z,39.70
2019-03-15T20:51:43.182Z,39.80
2019-03-15T20:54:35.137Z,39.70
2019-03-15T20:57:27.231Z,39.80
2019-03-15T21:00:34.360Z,39.70
2019-03-15T21:03:13.635Z,39.60
2019-03-15T21:06:05.803Z,39.60
2019-03-15T21:08:58.091Z,39.60
2019-03-15T21:11:50.297Z,39.70
2019-03-15T21:14:42.784Z,39.80
2019-03-15T21:17:35.035Z,39.70
2019-03-15T21:20:27.255Z,39.70
2019-03-15T21:23:19.567Z,39.60
2019-03-15T21:26:11.807Z,39.80
2019-03-15T21:29:04.010Z,39.70
2019-03-15T21:31:56.389Z,39.60
2019-03-15T21:34:49.151Z,39.70
2019-03-15T21:37:41.148Z,39.60
2019-03-15T21:40:33.271Z,39.60
2019-03-15T21:43:25.400Z,39.70
2019-03-15T21:46:17.580Z,40.00
2019-03-15T21:49:09.433Z,39.70
2019-03-15T21:52:01.262Z,39.50
2019-03-15T21:54:53.724Z,39.60
2019-03-15T21:57:45.772Z,39.60
2019-03-15T22:00:37.782Z,39.40
2019-03-15T22:03:29.734Z,39.60
2019-03-15T22:06:21.854Z,39.40
2019-03-15T22:09:13.975Z,39.60
2019-03-15T22:12:06.119Z,39.70
2019-03-15T22:14:58.248Z,39.50
2019-03-15T22:17:50.550Z,39.50
2019-03-15T22:20:42.804Z,39.60
2019-03-15T22:23:34.994Z,39.40
2019-03-15T22:26:27.141Z,39.50
2019-03-15T22:29:19.603Z,39.40
2019-03-15T22:32:11.401Z,39.40
2019-03-15T22:35:03.439Z,39.30
2019-03-15T22:37:55.299Z,39.10
2019-03-15T22:40:48.474Z,39.10
2019-03-15T22:43:40.342Z,39.30
2019-03-15T22:46:32.411Z,39.10
2019-03-15T22:49:24.590Z,39.10
2019-03-15T22:52:16.538Z,39.20
2019-03-15T22:55:08.421Z,39.00
2019-03-15T22:58:00.741Z,38.90
2019-03-15T23:00:52.988Z,38.80
2019-03-15T23:03:44.831Z,38.70
2019-03-15T23:06:36.723Z,38.70
2019-03-15T23:09:28.604Z,38.80
2019-03-15T23:12:20.760Z,38.70
2019-03-15T23:15:12.958Z,38.60
2019-03-15T23:18:05.097Z,38.80
2019-03-15T23:20:57.232Z,39.20
2019-03-15T23:23:49.369Z,39.20
2019-03-15T23:26:42.054Z,39.10
2019-03-15T23:29:35.215Z,39.20
2019-03-15T23:32:27.302Z,39.70
2019-03-15T23:35:19.582Z,39.60
2019-03-15T23:38:11.561Z,39.70
2019-03-15T23:41:03.668Z,40.20
2019-03-15T23:43:55.811Z,40.70
2019-03-15T23:46:48.007Z,41.00
2019-03-15T23:49:40.240Z,41.00
2019-03-15T23:52:32.473Z,41.40
2019-03-15T23:55:25.635Z,41.80
2019-03-15T23:58:17.573Z,41.90
